Time;durP1;ratioP1;P1;durP2;ratioP2;P2;SDS_P1;SDS_P2;PMS_P1;PMS_P2;Temp;Humidity;BMP_temperature;BMP_pressure;BME280_temperature;BME280_humidity;BME280_pressure;Samples;Min_cycle;Max_cycle;Signal;HPM_P1;HPM_P2
2022/08/02 00:01:53;;;;;;;7.75;6.60;;;;;;;23.21;62.46;98936.33;1734999;82;21563;-46
2022/08/02 00:04:20;;;;;;;8.45;6.95;;;;;;;23.22;62.52;98938.48;1735017;82;21005;-47
2022/08/02 00:06:47;;;;;;;7.60;6.78;;;;;;;23.21;62.41;98936.94;1734942;82;21092;-46
2022/08/02 00:09:14;;;;;;;7.45;6.75;;;;;;;23.20;62.52;98938.16;1735006;82;20986;-46
2022/08/02 00:11:41;;;;;;;21.75;9.18;;;;;;;23.21;62.59;98940.48;1734925;82;21136;-46
2022/08/02 00:14:08;;;;;;;16.80;8.03;;;;;;;23.22;62.52;98942.64;1734951;82;20922;-46
2022/08/02 00:16:35;;;;;;;9.70;6.72;;;;;;;23.22;62.26;98935.72;1734763;82;21534;-46
2022/08/02 00:19:02;;;;;;;9.55;7.00;;;;;;;23.22;62.47;98938.48;1735030;82;21010;-46
2022/08/02 00:21:29;;;;;;;7.78;6.97;;;;;;;23.23;62.64;98935.89;1735146;82;21019;-46
2022/08/02 00:23:57;;;;;;;9.05;7.08;;;;;;;23.21;62.97;98944.63;1734966;82;21100;-46
2022/08/02 00:26:24;;;;;;;8.45;7.10;;;;;;;23.20;63.14;98943.08;1734928;82;20982;-46
2022/08/02 00:28:51;;;;;;;9.75;6.85;;;;;;;23.17;62.97;98948.76;1734947;82;21081;-46
2022/08/02 00:31:18;;;;;;;11.30;7.40;;;;;;;23.14;63.23;98951.80;1734981;82;20934;-46
2022/08/02 00:33:45;;;;;;;9.55;7.08;;;;;;;23.09;62.94;98949.63;1734970;82;21081;-46
2022/08/02 00:36:12;;;;;;;10.40;7.35;;;;;;;23.02;63.12;98950.52;1735139;82;21242;-46
2022/08/02 00:38:39;;;;;;;10.88;7.05;;;;;;;22.96;63.29;98953.10;1734872;82;20997;-46
2022/08/02 00:41:10;;;;;;;11.83;7.30;;;;;;;22.92;63.39;98953.24;1735276;82;21014;-46
2022/08/02 00:43:37;;;;;;;10.53;7.83;;;;;;;22.91;63.56;98955.84;1735126;82;20933;-47
2022/08/02 00:46:04;;;;;;;7.80;7.00;;;;;;;22.89;63.65;98947.25;1735328;82;21008;-46
2022/08/02 00:48:32;;;;;;;9.85;7.37;;;;;;;22.87;63.85;98949.69;1735265;82;21222;-46
2022/08/02 00:50:59;;;;;;;8.58;7.40;;;;;;;22.83;63.69;98955.19;1735233;82;20958;-46
2022/08/02 00:53:26;;;;;;;10.35;7.65;;;;;;;22.74;63.95;98947.61;1735206;82;20970;-46
2022/08/02 00:55:53;;;;;;;8.90;7.65;;;;;;;22.71;64.05;98951.27;1734198;81;21176;-46
2022/08/02 00:58:20;;;;;;;11.85;8.00;;;;;;;22.67;64.22;98947.06;1748476;81;21061;-46
2022/08/02 01:00:47;;;;;;;8.80;7.58;;;;;;;22.64;64.34;98944.60;1749353;82;21772;-46
2022/08/02 01:03:14;;;;;;;8.53;7.65;;;;;;;22.56;64.39;98941.92;1749045;82;20961;-46
2022/08/02 01:05:42;;;;;;;12.07;7.80;;;;;;;22.55;64.48;98940.40;1749013;82;21004;-46
2022/08/02 01:08:10;;;;;;;9.50;8.00;;;;;;;22.52;64.53;98939.90;1749582;82;20925;-46
2022/08/02 01:10:37;;;;;;;10.53;8.70;;;;;;;22.44;64.69;98933.87;1748979;82;21076;-46
2022/08/02 01:13:04;;;;;;;11.08;8.30;;;;;;;22.39;64.81;98932.30;1749005;82;23159;-46
2022/08/02 01:15:34;;;;;;;9.05;7.72;;;;;;;22.34;64.94;98937.78;1749121;82;21471;-46
2022/08/02 01:18:13;;;;;;;10.05;8.25;;;;;;;22.34;65.08;98932.87;1749435;82;20969;-46
2022/08/02 01:21:01;;;;;;;11.70;9.10;;;;;;;22.34;65.16;98937.78;1748882;81;20945;-46
2022/08/02 01:24:11;;;;;;;12.93;8.23;;;;;;;22.30;65.12;98933.00;1749196;82;21535;-47
2022/08/02 01:27:04;;;;;;;11.50;9.20;;;;;;;22.25;65.40;98921.15;1749033;81;21535;-46
2022/08/02 01:29:38;;;;;;;13.65;9.78;;;;;;;22.24;65.47;98929.88;1746515;82;20988;-46
2022/08/02 01:32:14;;;;;;;13.50;10.55;;;;;;;22.23;65.55;98928.33;1749440;82;20965;-46
2022/08/02 01:35:02;;;;;;;13.18;10.05;;;;;;;22.25;65.65;98924.52;1749242;82;21045;-46
2022/08/02 01:37:34;;;;;;;14.40;10.23;;;;;;;22.26;65.57;98926.06;1749367;82;21088;-46
2022/08/02 01:40:22;;;;;;;11.45;10.23;;;;;;;22.25;65.44;98931.42;1742146;82;21253;-46
2022/08/02 01:42:53;;;;;;;14.75;10.90;;;;;;;22.22;65.47;98939.23;1749278;82;20965;-46
2022/08/02 01:45:21;;;;;;;13.05;10.48;;;;;;;22.16;65.57;98938.25;1749449;82;20981;-46
2022/08/02 01:47:48;;;;;;;13.50;10.43;;;;;;;22.13;65.71;98941.89;1748896;82;21608;-46
2022/08/02 01:50:17;;;;;;;15.45;10.30;;;;;;;22.10;65.77;98936.06;1749119;82;21006;-46
2022/08/02 01:52:47;;;;;;;12.50;10.48;;;;;;;22.06;65.73;98929.89;1748798;82;21884;-46
2022/08/02 01:55:44;;;;;;;13.18;10.43;;;;;;;22.04;65.74;98936.45;1749187;82;20993;-46
2022/08/02 01:58:14;;;;;;;14.47;10.15;;;;;;;22.05;65.74;98940.77;1741009;81;21081;-46
2022/08/02 02:00:41;;;;;;;13.03;10.43;;;;;;;22.02;65.65;98941.67;1735066;82;21021;-46
2022/08/02 02:03:14;;;;;;;14.47;10.75;;;;;;;22.00;65.81;98937.80;1735096;82;21301;-46
2022/08/02 02:05:41;;;;;;;14.55;10.13;;;;;;;22.01;65.81;98930.47;1730531;82;21820;-46
2022/08/02 02:08:08;;;;;;;13.00;10.30;;;;;;;22.00;65.74;98925.38;1734993;82;21496;-46
2022/08/02 02:10:37;;;;;;;15.20;10.13;;;;;;;21.98;65.77;98924.44;1713672;82;21026;-46
2022/08/02 02:13:10;;;;;;;12.65;9.60;;;;;;;21.95;65.63;98925.34;1714630;82;21085;-46
2022/08/02 02:15:42;;;;;;;12.20;9.85;;;;;;;21.91;65.67;98919.75;1734838;82;21512;-46
2022/08/02 02:18:10;;;;;;;12.88;9.75;;;;;;;21.87;65.81;98929.54;1735046;82;21135;-46
2022/08/02 02:20:37;;;;;;;15.53;9.95;;;;;;;21.85;65.71;98925.06;1735008;82;20967;-46
2022/08/02 02:23:04;;;;;;;11.73;9.58;;;;;;;21.81;65.77;98927.17;1735037;82;20950;-46
2022/08/02 02:25:31;;;;;;;12.37;9.20;;;;;;;21.81;65.84;98925.80;1734940;82;21033;-46
2022/08/02 02:28:02;;;;;;;12.80;9.88;;;;;;;21.79;65.74;98924.68;1735150;82;21049;-46
2022/08/02 02:30:29;;;;;;;10.80;9.38;;;;;;;21.75;65.76;98922.05;1735063;82;21123;-46
2022/08/02 02:32:59;;;;;;;13.28;9.70;;;;;;;21.73;65.82;98923.12;1735196;82;21006;-46
2022/08/02 02:35:32;;;;;;;11.95;9.43;;;;;;;21.67;65.88;98918.77;1735339;82;21017;-46
2022/08/02 02:38:00;;;;;;;12.35;9.98;;;;;;;21.62;65.96;98913.03;1735138;82;21050;-46
2022/08/02 02:40:28;;;;;;;14.98;10.50;;;;;;;21.60;66.08;98914.08;1735422;82;21081;-46
2022/08/02 02:42:55;;;;;;;12.10;10.35;;;;;;;21.56;66.04;98912.05;1735367;82;21256;-46
2022/08/02 02:45:22;;;;;;;12.33;10.58;;;;;;;21.50;66.25;98916.57;1735345;82;20969;-46
2022/08/02 02:47:50;;;;;;;14.53;10.45;;;;;;;21.47;66.35;98915.48;1735192;82;21520;-46
2022/08/02 02:50:17;;;;;;;14.93;10.60;;;;;;;21.46;66.48;98910.41;1735007;82;21029;-46
2022/08/02 02:52:44;;;;;;;17.37;11.15;;;;;;;21.46;66.52;98908.42;1735014;82;21002;-46
2022/08/02 02:55:11;;;;;;;15.90;10.75;;;;;;;21.45;66.58;98905.49;1734987;82;21507;-46
2022/08/02 02:57:38;;;;;;;13.10;10.65;;;;;;;21.46;66.67;98910.41;1734911;81;20982;-46
2022/08/02 03:00:12;;;;;;;14.43;10.63;;;;;;;21.48;66.56;98902.47;1735057;82;21065;-46
2022/08/02 03:02:40;;;;;;;15.13;10.75;;;;;;;21.46;66.52;98908.42;1735088;82;21058;-46
2022/08/02 03:05:09;;;;;;;13.32;10.40;;;;;;;21.46;66.69;98907.64;1734938;82;21053;-46
2022/08/02 03:07:36;;;;;;;15.35;10.75;;;;;;;21.45;66.78;98911.61;1734911;82;21133;-46
2022/08/02 03:10:05;;;;;;;15.85;11.30;;;;;;;21.44;66.76;98913.63;1735043;82;20997;-46
2022/08/02 03:12:33;;;;;;;16.52;11.05;;;;;;;21.41;66.87;98913.72;1735010;82;21042;-46
2022/08/02 03:15:04;;;;;;;16.97;10.98;;;;;;;21.39;67.11;98915.56;1734996;82;21081;-46
2022/08/02 03:17:43;;;;;;;12.45;10.28;;;;;;;21.39;67.16;98915.56;1734880;82;21264;-46
2022/08/02 03:20:12;;;;;;;13.78;9.95;;;;;;;21.40;67.13;98919.06;1734946;82;21735;-46
2022/08/02 03:22:40;;;;;;;16.37;9.40;;;;;;;21.37;67.20;98919.95;1734985;82;21340;-46
2022/08/02 03:25:08;;;;;;;14.45;9.10;;;;;;;21.34;67.26;98913.95;1734940;82;20938;-46
2022/08/02 03:27:36;;;;;;;11.60;8.95;;;;;;;21.32;67.35;98909.48;1735159;82;20938;-46
2022/08/02 03:30:06;;;;;;;10.63;8.28;;;;;;;21.32;67.43;98913.62;1735045;82;21007;-46
2022/08/02 03:32:34;;;;;;;14.05;9.35;;;;;;;21.34;67.44;98912.58;1735130;82;21082;-46
2022/08/02 03:35:01;;;;;;;12.47;8.35;;;;;;;21.37;67.33;98909.70;1735123;82;21037;-46
2022/08/02 03:37:29;;;;;;;11.28;8.80;;;;;;;21.40;67.28;98910.19;1735431;82;21030;-46
2022/08/02 03:39:56;;;;;;;13.90;9.03;;;;;;;21.42;67.20;98908.38;1735262;82;21006;-46
2022/08/02 03:42:22;;;;;;;11.35;8.25;;;;;;;21.44;67.17;98911.47;1735331;82;21560;-46
2022/08/02 03:44:50;;;;;;;10.43;8.20;;;;;;;21.48;67.13;98919.02;1738917;81;21563;-46
2022/08/02 03:47:17;;;;;;;10.78;7.85;;;;;;;21.48;67.18;98911.52;1734921;82;21009;-46
2022/08/02 03:49:45;;;;;;;10.78;8.28;;;;;;;21.51;67.13;98909.84;1735099;82;20883;-46
2022/08/02 03:52:11;;;;;;;10.70;7.78;;;;;;;21.53;66.87;98903.29;1735060;82;21075;-46
2022/08/02 03:54:39;;;;;;;9.28;7.28;;;;;;;21.53;66.88;98907.42;1734857;82;21029;-46
2022/08/02 03:57:06;;;;;;;10.10;8.05;;;;;;;21.55;67.04;98904.37;1734964;82;21208;-46
2022/08/02 03:59:41;;;;;;;9.85;7.50;;;;;;;21.60;66.86;98903.04;1734852;81;20934;-46
2022/08/02 04:02:09;;;;;;;9.25;7.03;;;;;;;21.57;66.80;98889.55;1735208;82;21012;-46
2022/08/02 04:04:36;;;;;;;10.53;8.08;;;;;;;21.66;66.61;98902.65;1734735;82;21009;-46
2022/08/02 04:07:04;;;;;;;9.78;7.28;;;;;;;21.64;66.58;98890.67;1735012;82;21496;-46
2022/08/02 04:09:33;;;;;;;9.18;7.03;;;;;;;21.67;66.60;98891.17;1730508;82;21492;-46
2022/08/02 04:12:00;;;;;;;8.85;7.03;;;;;;;21.72;66.55;98888.45;1734861;82;21022;-46
2022/08/02 04:14:27;;;;;;;9.50;7.20;;;;;;;21.73;66.31;98899.67;1735151;82;21536;-46
2022/08/02 04:16:58;;;;;;;11.57;7.03;;;;;;;21.72;66.41;98894.58;1735052;82;21021;-46
2022/08/02 04:19:34;;;;;;;8.10;7.22;;;;;;;21.75;66.27;98893.68;1735143;81;21591;-46
2022/08/02 04:22:03;;;;;;;8.18;7.05;;;;;;;21.79;66.34;98897.09;1735148;82;21220;-46
2022/08/02 04:24:41;;;;;;;9.25;7.10;;;;;;;21.83;66.05;98899.92;1735281;82;21005;-46
2022/08/02 04:27:08;;;;;;;9.15;6.55;;;;;;;21.83;66.09;98899.92;1735037;82;21041;-46
2022/08/02 04:29:35;;;;;;;7.37;6.45;;;;;;;21.83;66.15;98899.14;1700092;82;21081;-46
2022/08/02 04:32:03;;;;;;;8.38;6.37;;;;;;;21.86;66.25;98900.39;1735343;82;20987;-46
2022/08/02 04:34:30;;;;;;;9.58;6.42;;;;;;;21.90;66.06;98899.66;1734987;82;21877;-46
2022/08/02 04:37:00;;;;;;;9.80;7.03;;;;;;;21.90;66.06;98900.27;1735178;82;21535;-46
2022/08/02 04:39:27;;;;;;;15.13;10.43;;;;;;;21.93;66.07;98901.55;1735314;82;21079;-46
2022/08/02 04:41:54;;;;;;;15.90;10.93;;;;;;;21.96;65.96;98907.57;1735297;82;21587;-46
2022/08/02 04:44:21;;;;;;;23.15;13.10;;;;;;;21.99;65.97;98908.05;1735367;82;21037;-46
2022/08/02 04:46:48;;;;;;;18.95;11.85;;;;;;;22.01;65.88;98911.14;1740436;80;21223;-46
2022/08/02 04:49:17;;;;;;;16.48;10.80;;;;;;;22.01;65.84;98909.76;1774228;80;21519;-46
2022/08/02 04:51:44;;;;;;;12.25;8.68;;;;;;;22.06;65.87;98910.57;1774151;80;21508;-46
2022/08/02 04:54:11;;;;;;;11.78;8.53;;;;;;;22.09;66.01;98908.28;1774202;80;21572;-46
2022/08/02 04:56:39;;;;;;;8.43;7.12;;;;;;;22.13;65.76;98909.53;1773967;80;21515;-46
2022/08/02 04:59:06;;;;;;;8.88;7.50;;;;;;;22.14;65.92;98915.83;1778284;80;23160;-46
2022/08/02 05:01:34;;;;;;;8.18;7.12;;;;;;;22.14;65.82;98914.45;1782612;80;21515;-46
2022/08/02 05:04:01;;;;;;;7.17;6.45;;;;;;;22.15;65.65;98910.48;1782679;80;21013;-46
2022/08/02 05:06:28;;;;;;;11.15;6.87;;;;;;;22.14;65.83;98917.98;1782506;80;21585;-46
2022/08/02 05:08:55;;;;;;;10.55;7.05;;;;;;;22.13;65.81;98919.80;1782808;80;21073;-46
2022/08/02 05:11:23;;;;;;;7.40;6.62;;;;;;;22.14;65.84;98926.87;1782610;80;21146;-46
2022/08/02 05:13:51;;;;;;;7.50;6.35;;;;;;;22.16;65.76;98927.20;1782502;80;20929;-46
2022/08/02 05:16:18;;;;;;;7.30;6.42;;;;;;;22.18;65.62;98932.43;1782496;80;21418;-46
2022/08/02 05:18:44;;;;;;;8.15;7.20;;;;;;;22.19;65.61;98931.83;1782725;80;21573;-46
2022/08/02 05:21:11;;;;;;;8.10;7.08;;;;;;;22.17;65.68;98930.91;1782667;80;20977;-46
2022/08/02 05:23:38;;;;;;;9.73;7.72;;;;;;;22.18;65.67;98934.41;1782550;80;21244;-46
2022/08/02 05:26:05;;;;;;;10.45;7.80;;;;;;;22.17;65.55;98934.28;1782727;80;21489;-46
2022/08/02 05:28:32;;;;;;;10.05;8.55;;;;;;;22.15;65.75;98929.20;1782693;80;21545;-46
2022/08/02 05:30:59;;;;;;;14.58;9.30;;;;;;;22.17;65.84;98936.44;1782767;80;21065;-46
2022/08/02 05:33:27;;;;;;;14.95;11.25;;;;;;;22.19;65.70;98935.97;1782755;80;21084;-46
2022/08/02 05:35:54;;;;;;;15.28;11.25;;;;;;;22.19;65.65;98944.25;1782624;80;21218;-46
2022/08/02 05:38:21;;;;;;;16.32;11.03;;;;;;;22.16;65.61;98947.92;1782656;80;20973;-46
2022/08/02 05:40:48;;;;;;;17.30;11.30;;;;;;;22.14;65.64;98943.44;1782828;80;20981;-46
2022/08/02 05:43:15;;;;;;;18.75;12.30;;;;;;;22.10;65.69;98938.82;1783055;80;21510;-46
2022/08/02 05:45:42;;;;;;;15.65;11.20;;;;;;;22.14;65.81;98942.06;1782866;80;21052;-46
2022/08/02 05:48:09;;;;;;;14.03;10.58;;;;;;;22.17;65.82;98950.84;1782916;80;21245;-46
2022/08/02 05:50:39;;;;;;;13.88;10.68;;;;;;;22.18;65.69;98955.13;1782804;80;20993;-46
2022/08/02 05:53:23;;;;;;;16.15;10.28;;;;;;;22.17;65.71;98959.13;1782926;80;20945;-46
2022/08/02 05:56:13;;;;;;;13.62;9.40;;;;;;;22.16;65.95;98951.45;1782684;80;20945;-46
2022/08/02 05:59:03;;;;;;;10.75;8.70;;;;;;;22.18;65.93;98964.19;1769556;80;21088;-46
2022/08/02 06:01:38;;;;;;;11.43;9.50;;;;;;;22.17;66.08;98966.03;1782554;80;21238;-46
2022/08/02 06:04:08;;;;;;;11.95;9.15;;;;;;;22.14;66.15;98966.91;1782439;80;21008;-46
2022/08/02 06:06:36;;;;;;;12.85;9.83;;;;;;;22.14;66.27;98967.68;1782401;80;21510;-46
2022/08/02 06:09:15;;;;;;;15.90;10.03;;;;;;;22.13;66.48;98975.02;1782393;80;21514;-46
2022/08/02 06:11:45;;;;;;;13.20;9.98;;;;;;;22.16;66.67;98973.54;1782532;80;21005;-46
2022/08/02 06:14:12;;;;;;;13.40;10.38;;;;;;;22.15;66.67;98985.80;1782704;80;21175;-46
2022/08/02 06:16:40;;;;;;;17.15;11.12;;;;;;;22.12;66.75;98979.02;1782282;80;20992;-46
2022/08/02 06:19:07;;;;;;;14.25;10.20;;;;;;;22.10;66.96;98983.60;1782513;80;21012;-46
2022/08/02 06:21:34;;;;;;;13.98;10.50;;;;;;;22.08;67.26;98979.89;1782500;80;21483;-46
2022/08/02 06:24:01;;;;;;;15.45;10.63;;;;;;;22.10;67.60;98985.75;1779063;80;21510;-47
2022/08/02 06:26:28;;;;;;;12.78;10.53;;;;;;;22.02;67.83;98967.90;1782389;80;21254;-46
2022/08/02 06:28:57;;;;;;;14.70;11.57;;;;;;;22.19;67.88;98992.57;1782213;80;20953;-46
2022/08/02 06:31:23;;;;;;;12.90;10.50;;;;;;;22.18;67.79;98989.64;1782284;80;20938;-46
2022/08/02 06:33:51;;;;;;;16.07;10.90;;;;;;;22.10;67.82;98992.66;1782401;80;21028;-46
2022/08/02 06:36:43;;;;;;;13.75;11.18;;;;;;;22.04;68.02;99001.33;1782403;80;21001;-46
2022/08/02 06:39:19;;;;;;;16.30;11.85;;;;;;;22.06;68.42;98996.16;1782263;80;22151;-46
2022/08/02 06:41:46;;;;;;;14.38;11.70;;;;;;;22.06;68.33;99000.89;1782298;80;21001;-46
2022/08/02 06:44:15;;;;;;;16.27;12.90;;;;;;;22.01;68.77;99000.86;1783086;80;21535;-46
2022/08/02 06:46:42;;;;;;;17.30;13.55;;;;;;;22.01;69.00;98997.32;1782437;80;21016;-46
2022/08/02 06:49:09;;;;;;;16.77;13.22;;;;;;;22.03;69.19;98992.11;1782607;80;20997;-46
2022/08/02 06:51:36;;;;;;;24.92;18.27;;;;;;;22.07;69.32;98993.53;1782605;80;21554;-46
2022/08/02 06:54:04;;;;;;;32.85;20.95;;;;;;;22.08;69.27;98995.08;1782512;80;20928;-46
2022/08/02 06:56:31;;;;;;;32.55;22.77;;;;;;;22.04;69.21;98985.38;1782538;80;21040;-46
2022/08/02 06:58:58;;;;;;;36.65;23.80;;;;;;;22.04;69.29;98976.48;1781074;80;21116;-46
2022/08/02 07:01:25;;;;;;;36.68;24.02;;;;;;;22.06;69.51;98979.59;1774333;80;21025;-46
2022/08/02 07:03:53;;;;;;;35.30;23.75;;;;;;;22.09;69.66;98977.30;1773974;80;23171;-46
2022/08/02 07:06:20;;;;;;;28.50;21.65;;;;;;;22.18;69.98;98970.31;1773965;80;20981;-46
2022/08/02 07:08:48;;;;;;;36.90;21.85;;;;;;;22.26;70.25;98968.87;1763324;80;20954;-46
2022/08/02 07:11:15;;;;;;;29.82;23.05;;;;;;;22.31;70.19;98975.20;1743449;82;20968;-46
2022/08/02 07:13:42;;;;;;;37.78;26.45;;;;;;;22.26;70.11;98978.53;1743464;82;21057;-46
2022/08/02 07:16:09;;;;;;;46.92;31.87;;;;;;;22.21;70.30;98976.34;1743145;82;23162;-46
2022/08/02 07:18:37;;;;;;;61.55;41.02;;;;;;;22.21;70.49;98974.95;1743361;82;21047;-46
2022/08/02 07:21:05;;;;;;;63.48;42.00;;;;;;;22.23;70.37;98973.88;1743463;82;20906;-46
2022/08/02 07:23:34;;;;;;;72.37;45.63;;;;;;;22.21;70.42;98975.73;1743197;82;21028;-46
2022/08/02 07:26:01;;;;;;;66.40;47.23;;;;;;;22.18;70.98;98971.69;1774105;80;21025;-46
2022/08/02 07:28:28;;;;;;;73.20;48.65;;;;;;;22.18;70.98;98971.69;1774246;80;21520;-46
2022/08/02 07:30:55;;;;;;;73.50;48.55;;;;;;;22.22;70.76;98976.51;1774257;80;21021;-46
2022/08/02 07:33:23;;;;;;;77.47;48.38;;;;;;;22.25;70.81;98978.36;1773935;80;21519;-46
2022/08/02 07:35:51;;;;;;;76.28;48.30;;;;;;;22.32;71.12;98976.72;1774490;80;21615;-46
2022/08/02 07:38:21;;;;;;;72.55;47.58;;;;;;;22.35;70.75;98977.23;1773919;80;21504;-46
2022/08/02 07:40:47;;;;;;;76.20;50.43;;;;;;;22.39;70.83;98979.25;1774234;80;21421;-46
2022/08/02 07:43:14;;;;;;;76.10;50.03;;;;;;;22.40;70.79;98983.56;1774089;80;20998;-46
2022/08/02 07:45:44;;;;;;;74.07;48.28;;;;;;;22.41;70.79;98985.11;1774008;80;21068;-46
2022/08/02 07:48:11;;;;;;;78.70;49.58;;;;;;;22.41;70.35;98991.38;1773973;80;21076;-46
2022/08/02 07:50:39;;;;;;;73.70;50.78;;;;;;;22.37;70.42;98988.58;1774160;80;21088;-46
2022/08/02 07:53:06;;;;;;;73.57;49.42;;;;;;;22.34;70.96;98995.01;1774327;80;21148;-46
2022/08/02 07:55:33;;;;;;;74.12;49.27;;;;;;;22.38;70.76;99001.95;1774189;80;20958;-46
2022/08/02 07:58:00;;;;;;;74.37;50.35;;;;;;;22.41;71.06;98988.62;1774017;80;21071;-46
2022/08/02 08:00:26;;;;;;;75.47;49.38;;;;;;;22.48;71.08;99000.03;1769972;80;21566;-46
2022/08/02 08:02:53;;;;;;;73.72;48.52;;;;;;;22.51;70.94;98992.25;1774294;80;21053;-46
2022/08/02 08:05:22;;;;;;;73.07;48.00;;;;;;;22.57;70.89;98998.72;1774043;80;23139;-46
2022/08/02 08:07:49;;;;;;;72.78;48.87;;;;;;;;;;1774133;80;21013;-46
2022/08/02 08:12:16;;;;;;;68.80;47.75;;;;;;;22.74;70.00;98995.98;1788146;79;22635;-46
2022/08/02 08:14:43;;;;;;;66.53;45.70;;;;;;;22.65;70.03;99003.41;1763177;81;21579;-46
2022/08/02 08:17:10;;;;;;;65.50;45.20;;;;;;;22.68;70.22;99002.49;1763065;81;21120;-46
2022/08/02 08:19:37;;;;;;;63.78;44.93;;;;;;;22.70;70.34;99002.25;1763064;81;20966;-46
2022/08/02 08:22:04;;;;;;;63.95;43.92;;;;;;;22.70;70.58;99006.39;1763100;81;20931;-46
2022/08/02 08:24:32;;;;;;;62.53;41.23;;;;;;;22.70;70.72;99008.36;1763103;81;21544;-46
2022/08/02 08:26:59;;;;;;;62.00;41.83;;;;;;;22.75;70.69;99007.80;1763233;81;21543;-46
2022/08/02 08:29:26;;;;;;;56.92;40.35;;;;;;;22.80;70.83;99005.21;1763263;81;21619;-46
2022/08/02 08:31:54;;;;;;;54.30;38.80;;;;;;;22.84;70.88;99007.26;1763185;81;21544;-46
2022/08/02 08:34:22;;;;;;;51.13;37.30;;;;;;;22.84;70.59;99001.73;1763128;81;20961;-46
2022/08/02 08:36:50;;;;;;;51.23;34.27;;;;;;;22.83;70.44;99005.71;1763199;81;21595;-46
2022/08/02 08:39:17;;;;;;;47.58;34.00;;;;;;;22.83;70.24;98998.80;1763259;81;21532;-46
2022/08/02 08:41:44;;;;;;;43.28;31.52;;;;;;;22.84;70.59;99001.73;1763159;81;21745;-46
2022/08/02 08:44:11;;;;;;;42.62;30.62;;;;;;;22.87;70.37;99006.34;1762905;81;21455;-46
2022/08/02 08:46:38;;;;;;;41.25;28.90;;;;;;;22.82;70.50;99002.78;1763090;81;20986;-46
2022/08/02 08:49:30;;;;;;;40.83;27.05;;;;;;;22.79;69.88;98995.41;1756089;81;21034;-46
2022/08/02 08:52:02;;;;;;;37.00;25.25;;;;;;;22.75;69.97;99005.79;1763096;80;20950;-46
2022/08/02 08:54:29;;;;;;;37.03;27.48;;;;;;;22.69;69.78;99008.96;1757460;81;21101;-46
2022/08/02 08:56:57;;;;;;;33.50;25.62;;;;;;;22.70;70.36;99012.50;1757089;81;21519;-46
2022/08/02 08:59:25;;;;;;;31.40;24.02;;;;;;;22.74;70.27;99023.61;1757377;81;21062;-46
2022/08/02 09:01:53;;;;;;;32.03;24.35;;;;;;;22.74;69.90;99027.77;1757131;81;21028;-46
2022/08/02 09:04:20;;;;;;;32.30;23.15;;;;;;;22.73;69.77;99022.06;1757435;81;21080;-46
2022/08/02 09:06:48;;;;;;;34.48;22.55;;;;;;;22.72;70.08;99030.19;1757185;81;21236;-46
2022/08/02 09:09:16;;;;;;;30.75;21.97;;;;;;;22.71;69.61;99035.55;1757302;81;20929;-46
2022/08/02 09:11:43;;;;;;;31.95;22.52;;;;;;;22.69;69.46;99032.45;1753713;81;20941;-46
2022/08/02 09:14:11;;;;;;;29.75;21.27;;;;;;;22.66;69.56;99034.71;1751903;81;20933;-46
2022/08/02 09:16:40;;;;;;;34.40;21.48;;;;;;;22.62;69.55;99038.82;1722686;81;20989;-46
2022/08/02 09:19:22;;;;;;;25.20;20.23;;;;;;;22.58;70.15;99043.09;1752520;81;21085;-46
2022/08/02 09:22:06;;;;;;;29.27;21.02;;;;;;;22.58;70.44;99047.84;1751452;81;21092;-46
2022/08/02 09:24:46;;;;;;;28.77;21.02;;;;;;;22.59;70.39;99047.41;1751599;82;20961;-46
2022/08/02 09:27:21;;;;;;;26.37;20.08;;;;;;;22.59;70.42;99054.92;1751972;82;21072;-46
2022/08/02 09:29:51;;;;;;;25.90;19.65;;;;;;;22.64;70.62;99057.89;1751728;82;21010;-46
2022/08/02 09:32:18;;;;;;;;;;;;;;;22.68;70.77;99059.92;1754226;82;21897;-46
2022/08/02 09:34:51;;;;;;;24.95;19.95;;;;;;;22.74;71.31;99067.06;1751474;81;20142;-46
2022/08/02 09:37:29;;;;;;;25.00;19.73;;;;;;;22.71;71.52;99065.95;1751311;82;20989;-46
2022/08/02 09:40:02;;;;;;;23.65;19.35;;;;;;;22.77;71.49;99068.31;1751492;82;21384;-46
2022/08/02 09:42:29;;;;;;;22.10;17.98;;;;;;;22.80;71.55;99064.64;1751512;82;21033;-46
2022/08/02 09:45:01;;;;;;;21.52;18.32;;;;;;;22.80;71.31;99062.51;1751496;82;21096;-46
2022/08/02 09:47:30;;;;;;;25.25;18.90;;;;;;;22.83;71.47;99058.23;1751367;82;21506;-46
2022/08/02 09:49:57;;;;;;;21.35;18.67;;;;;;;22.88;71.70;99054.89;1751798;82;21029;-46
2022/08/02 09:52:31;;;;;;;22.25;18.23;;;;;;;22.93;71.78;99055.69;1751265;82;21372;-46
2022/08/02 09:55:05;;;;;;;24.15;18.62;;;;;;;23.00;71.27;99059.41;1751824;82;21004;-46
2022/08/02 09:57:32;;;;;;;22.60;18.05;;;;;;;23.01;71.12;99058.19;1751661;82;21076;-46
2022/08/02 09:59:59;;;;;;;26.27;18.25;;;;;;;23.03;71.11;99062.06;1764126;80;21209;-46
2022/08/02 10:02:26;;;;;;;23.70;19.40;;;;;;;23.05;70.23;99061.59;1782710;80;20965;-46
2022/08/02 10:04:54;;;;;;;23.07;19.17;;;;;;;22.98;70.70;99061.86;1782623;80;21088;-46
2022/08/02 10:07:22;;;;;;;21.95;18.90;;;;;;;22.96;71.39;99057.55;1782509;80;20992;-46
2022/08/02 10:09:50;;;;;;;21.55;19.17;;;;;;;23.01;71.66;99054.81;1782579;80;21132;-46
2022/08/02 10:12:19;;;;;;;22.62;18.65;;;;;;;23.10;71.88;99061.01;1782579;80;20929;-46
2022/08/02 10:14:46;;;;;;;24.95;20.40;;;;;;;23.18;71.39;99058.16;1782584;80;20911;-46
2022/08/02 10:17:12;;;;;;;25.00;19.62;;;;;;;23.22;71.31;99056.03;1782344;80;21037;-46
2022/08/02 10:19:39;;;;;;;24.57;19.52;;;;;;;23.27;71.36;99056.83;1751903;80;21088;-46
2022/08/02 10:22:11;;;;;;;23.38;19.85;;;;;;;23.34;71.09;99054.55;1782439;80;21137;-46
2022/08/02 10:24:39;;;;;;;26.12;21.05;;;;;;;23.41;70.40;99056.29;1782327;80;20988;-46
2022/08/02 10:27:19;;;;;;;26.27;20.50;;;;;;;23.45;70.45;99055.56;1782470;80;21499;-46
2022/08/02 10:29:48;;;;;;;26.50;21.48;;;;;;;23.50;70.53;99060.52;1782296;80;21539;-46
2022/08/02 10:32:34;;;;;;;29.57;20.87;;;;;;;23.52;70.03;99052.54;1782753;80;20952;-46
2022/08/02 10:35:09;;;;;;;26.70;21.82;;;;;;;23.47;69.66;99053.12;1782537;80;21325;-46
2022/08/02 10:37:38;;;;;;;25.48;20.85;;;;;;;23.38;70.00;99051.67;1782037;80;20977;-46
2022/08/02 10:40:21;;;;;;;25.47;21.67;;;;;;;23.34;69.93;99055.94;1782695;80;21021;-46
2022/08/02 10:42:48;;;;;;;31.00;21.75;;;;;;;23.29;70.17;99050.98;1759064;80;20905;-46
2022/08/02 10:45:17;;;;;;;26.87;21.68;;;;;;;23.26;70.40;99053.90;1751600;82;21044;-46
2022/08/02 10:48:10;;;;;;;25.15;21.05;;;;;;;23.25;70.42;99052.34;1751415;82;21861;-46
2022/08/02 10:50:52;;;;;;;27.65;20.52;;;;;;;23.25;70.09;99055.11;1751615;82;21126;-46
2022/08/02 10:53:30;;;;;;;23.73;17.70;;;;;;;23.27;70.39;99052.08;1751295;80;21060;-46
2022/08/02 10:56:01;;;;;;;22.67;16.07;;;;;;;23.29;69.07;99051.59;1734836;82;21025;-46
2022/08/02 10:58:32;;;;;;;21.70;16.02;;;;;;;23.28;68.02;99051.47;1751736;82;21855;-46
2022/08/02 11:01:05;;;;;;;23.65;16.52;;;;;;;23.28;67.77;99045.32;1743501;82;21244;-46
2022/08/02 11:03:38;;;;;;;22.32;15.72;;;;;;;23.26;67.41;99042.22;1743280;82;20942;-46
2022/08/02 11:06:12;;;;;;;24.63;15.50;;;;;;;23.28;67.67;99051.47;1743276;82;21001;-46
2022/08/02 11:08:40;;;;;;;20.02;14.18;;;;;;;23.29;67.40;99048.83;1743388;82;20954;-46
2022/08/02 11:11:15;;;;;;;19.87;13.08;;;;;;;23.31;66.77;99045.02;1742189;81;21029;-46
2022/08/02 11:14:08;;;;;;;21.17;14.15;;;;;;;23.26;65.97;99043.61;1735098;82;22072;-46
2022/08/02 11:16:57;;;;;;;24.85;15.15;;;;;;;23.25;66.27;99045.44;1734866;82;21000;-46
2022/08/02 11:19:28;;;;;;;22.07;15.83;;;;;;;23.25;66.25;99039.91;1735563;82;21025;-46
2022/08/02 11:22:10;;;;;;;23.05;15.38;;;;;;;23.25;66.42;99046.20;1735089;81;21020;-46
2022/08/02 11:24:41;;;;;;;22.30;16.52;;;;;;;23.20;66.79;99040.48;1735105;82;21050;-46
2022/08/02 11:27:09;;;;;;;21.97;15.15;;;;;;;23.23;67.37;99040.98;1735112;82;21191;-46
2022/08/02 11:29:44;;;;;;;25.70;16.73;;;;;;;23.29;67.15;99035.00;1738799;81;20982;-46
2022/08/02 11:32:23;;;;;;;24.60;15.53;;;;;;;23.31;66.51;99045.02;1735017;82;21550;-46
2022/08/02 11:34:52;;;;;;;20.90;14.93;;;;;;;23.30;66.18;99047.00;1735523;82;20958;-46
2022/08/02 11:37:34;;;;;;;23.23;14.77;;;;;;;23.32;66.71;99047.95;1735153;82;21013;-46